createdAt,value
2022-12-28T00:01:43.842Z,99921.53
2022-12-28T00:04:14.954Z,99924.91
2022-12-28T00:06:41.769Z,99923.22
2022-12-28T00:09:12.365Z,99929.16
2022-12-28T00:11:39.401Z,99925.81
2022-12-28T00:14:06.319Z,99922.44
2022-12-28T00:16:37.507Z,99917.38
2022-12-28T00:19:10.611Z,99902.19
2022-12-28T00:21:37.636Z,99893.78
2022-12-28T00:24:05.627Z,99909.81
2022-12-28T00:26:35.197Z,99893.78
2022-12-28T00:29:05.658Z,99896.31
2022-12-28T00:31:34.309Z,99886.19
2022-12-28T00:34:02.269Z,99888.72
2022-12-28T00:37:08.483Z,99891.25
2022-12-28T00:39:15.913Z,99887.91
2022-12-28T00:41:42.680Z,99866.81
2022-12-28T00:44:10.840Z,99883.69
2022-12-28T00:46:38.139Z,99876.94
2022-12-28T00:49:07.759Z,99861.75
2022-12-28T00:51:35.043Z,99856.69
2022-12-28T00:54:01.835Z,99858.38
2022-12-28T00:56:28.715Z,99844.88
2022-12-28T00:58:59.758Z,99846.53
2022-12-28T01:01:28.973Z,99847.38
2022-12-28T01:03:57.964Z,99844.03
2022-12-28T01:06:25.843Z,99834.69
2022-12-28T01:08:52.876Z,99833.03
2022-12-28T01:11:26.703Z,99837.25
2022-12-28T01:13:56.977Z,99828.81
2022-12-28T01:16:28.017Z,99811.94
2022-12-28T01:18:58.170Z,99804.34
2022-12-28T01:21:29.187Z,99814.44
2022-12-28T01:24:04.230Z,99787.44
2022-12-28T01:26:31.418Z,99780.66
2022-12-28T01:28:59.357Z,99773.88
2022-12-28T01:31:27.013Z,99789.94
2022-12-28T01:33:55.239Z,99778.97
2022-12-28T01:36:25.568Z,99774.72
2022-12-28T01:38:56.291Z,99758.69
2022-12-28T01:41:25.368Z,99751.97
2022-12-28T01:43:52.277Z,99757.84
2022-12-28T01:46:48.148Z,99757.84
2022-12-28T01:49:38.490Z,99757.84
2022-12-28T01:52:15.687Z,99756.16
2022-12-28T01:55:10.893Z,99755.34
2022-12-28T01:58:02.878Z,99751.09
2022-12-28T02:00:30.057Z,99737.59
2022-12-28T02:03:22.524Z,99746.91
2022-12-28T02:05:55.801Z,99717.41
2022-12-28T02:08:50.128Z,99728.41
2022-12-28T02:11:19.727Z,99720.81
2022-12-28T02:13:50.175Z,99713.19
2022-12-28T02:16:17.005Z,99714.06
2022-12-28T02:18:45.818Z,99696.31
2022-12-28T02:21:17.923Z,99702.22
2022-12-28T02:24:32.240Z,99708.97
2022-12-28T02:27:10.958Z,99703.91
2022-12-28T02:29:43.647Z,99705.59
2022-12-28T02:33:03.132Z,99698.84
2022-12-28T02:35:59.308Z,99687.88
2022-12-28T02:38:40.368Z,99677.75
2022-12-28T02:41:15.521Z,99679.44
2022-12-28T02:43:42.449Z,99672.69
2022-12-28T02:46:50.884Z,99682.81
2022-12-28T02:49:45.155Z,99670.16
2022-12-28T02:52:17.561Z,99664.25
2022-12-28T02:55:34.640Z,99664.25
2022-12-28T02:58:39.752Z,99661.72
2022-12-28T03:01:52.706Z,99643.16
2022-12-28T03:05:05.528Z,99635.56
2022-12-28T03:08:22.666Z,99632.19
2022-12-28T03:10:55.004Z,99632.19
2022-12-28T03:13:50.017Z,99623.75
2022-12-28T03:17:05.783Z,99619.53
2022-12-28T03:20:03.099Z,99626.28
2022-12-28T03:22:53.856Z,99615.31
2022-12-28T03:25:45.923Z,99622.88
2022-12-28T03:28:42.881Z,99615.28
2022-12-28T03:55:06.503Z,99567.13
2022-12-28T03:57:03.399Z,99567.94
2022-12-28T04:07:35.072Z,99549.31
2022-12-28T04:13:17.342Z,99528.19
2022-12-28T04:16:12.526Z,99546.75
2022-12-28T04:19:36.644Z,99543.34
2022-12-28T04:22:48.844Z,99529.84
2022-12-28T04:26:05.227Z,99541.66
2022-12-28T04:29:10.676Z,99523.91
2022-12-28T04:31:53.098Z,99534.84
2022-12-28T04:43:24.630Z,99515.41
2022-12-28T04:52:19.371Z,99512.00
2022-12-28T04:54:52.001Z,99493.38
2022-12-28T04:57:36.053Z,99499.25
2022-12-28T05:00:11.120Z,99517.84
2022-12-28T05:03:29.167Z,99516.94
2022-12-28T05:10:26.533Z,99509.38
2022-12-28T05:13:06.504Z,99523.72
2022-12-28T05:16:29.942Z,99518.59
2022-12-28T05:19:46.799Z,99512.66
2022-12-28T05:33:37.917Z,99503.34
2022-12-28T05:37:08.198Z,99520.22
2022-12-28T05:40:32.725Z,99518.53
2022-12-28T05:59:03.560Z,99498.25
2022-12-28T06:05:00.497Z,99489.72
2022-12-28T06:07:27.361Z,99471.13
2022-12-28T06:10:12.246Z,99493.09
2022-12-28T06:12:54.487Z,99478.72
2022-12-28T06:15:33.836Z,99488.00
2022-12-28T06:18:17.171Z,99475.31
2022-12-28T06:20:57.216Z,99466.00
2022-12-28T06:23:44.525Z,99468.50
2022-12-28T06:26:44.216Z,99453.28
2022-12-28T06:29:20.035Z,99453.28
2022-12-28T06:31:53.373Z,99454.13
2022-12-28T06:34:24.076Z,99451.59
2022-12-28T06:36:56.451Z,99456.69
2022-12-28T06:40:46.838Z,99451.59
2022-12-28T06:43:06.744Z,99455.84
2022-12-28T06:46:23.116Z,99450.84
2022-12-28T06:49:34.581Z,99452.50
2022-12-28T06:53:00.341Z,99455.03
2022-12-28T06:57:04.386Z,99455.91
2022-12-28T06:59:46.288Z,99464.41
2022-12-28T08:13:17.222Z,99468.25
2022-12-28T08:16:08.035Z,99455.53
2022-12-28T08:18:34.926Z,99458.88
2022-12-28T08:21:15.275Z,99451.22
2022-12-28T08:27:55.664Z,99452.03
2022-12-28T08:30:22.463Z,99474.03
2022-12-28T08:32:51.444Z,99474.84
2022-12-28T08:35:18.158Z,99480.69
2022-12-28T08:37:47.153Z,99468.81
2022-12-28T08:40:13.868Z,99481.44
2022-12-28T08:42:40.702Z,99472.13
2022-12-28T08:45:08.184Z,99474.66
2022-12-28T08:48:00.618Z,99477.94
2022-12-28T08:50:31.581Z,99478.78
2022-12-28T08:52:58.745Z,99471.16
2022-12-28T08:55:25.450Z,99463.47
2022-12-28T08:57:52.151Z,99456.69
2022-12-28T09:00:19.131Z,99463.44
2022-12-28T09:02:45.891Z,99453.25
2022-12-28T09:05:12.688Z,99460.00
2022-12-28T09:07:39.445Z,99459.94
2022-12-28T09:10:07.339Z,99459.91
2022-12-28T09:12:34.156Z,99453.94
2022-12-28T09:15:00.913Z,99459.78
2022-12-28T09:17:27.696Z,99455.56
2022-12-28T09:19:54.407Z,99454.59
2022-12-28T09:22:21.167Z,99461.34
2022-12-28T09:24:47.844Z,99453.69
2022-12-28T09:27:14.739Z,99457.06
2022-12-28T09:29:41.497Z,99457.91
2022-12-28T09:32:08.311Z,99453.66
2022-12-28T09:34:37.522Z,99454.50
2022-12-28T09:37:05.979Z,99442.59
2022-12-28T09:39:32.820Z,99439.97
2022-12-28T09:42:21.726Z,99450.91
2022-12-28T09:45:06.411Z,99463.53
2022-12-28T09:47:51.688Z,99447.31
2022-12-28T09:50:18.675Z,99458.25
2022-12-28T09:53:22.838Z,99453.00
2022-12-28T09:56:23.357Z,99452.84
2022-12-28T09:58:51.568Z,99440.00
2022-12-28T10:01:21.072Z,99440.63
2022-12-28T10:03:49.143Z,99436.16
2022-12-28T10:06:26.609Z,99429.81
2022-12-28T10:08:57.243Z,99426.22
2022-12-28T10:11:33.065Z,99434.31
2022-12-28T10:14:09.625Z,99426.28
2022-12-28T10:16:42.768Z,99425.78
2022-12-28T10:19:19.054Z,99428.50
2022-12-28T10:21:47.683Z,99414.91
2022-12-28T10:25:06.239Z,99410.69
2022-12-28T10:27:11.392Z,99418.56
2022-12-28T10:29:38.163Z,99403.66
2022-12-28T10:32:09.491Z,99406.00
2022-12-28T10:34:37.882Z,99416.00
2022-12-28T10:37:16.216Z,99393.81
2022-12-28T10:39:58.718Z,99404.13
2022-12-28T10:42:43.922Z,99394.84
2022-12-28T10:45:26.908Z,99400.66
2022-12-28T10:47:56.578Z,99399.22
2022-12-28T10:51:11.736Z,99391.47
2022-12-28T10:53:48.976Z,99397.03
2022-12-28T10:56:31.862Z,99395.16
2022-12-28T10:59:10.672Z,99388.94
2022-12-28T11:01:38.835Z,99391.25
2022-12-28T11:04:17.967Z,99381.47
2022-12-28T11:07:00.356Z,99380.97
2022-12-28T11:09:35.206Z,99378.78
2022-12-28T11:12:27.640Z,99370.09
2022-12-28T11:14:54.511Z,99371.13
2022-12-28T11:17:28.232Z,99355.56
2022-12-28T11:20:08.335Z,99356.72
2022-12-28T11:22:35.129Z,99356.53
2022-12-28T11:25:02.746Z,99349.66
2022-12-28T11:27:29.564Z,99351.72
2022-12-28T11:29:57.452Z,99345.09
2022-12-28T11:32:35.763Z,99335.28
2022-12-28T11:35:04.103Z,99340.78
2022-12-28T11:37:30.860Z,99324.75
2022-12-28T11:39:58.794Z,99328.16
2022-12-28T11:42:39.947Z,99307.63
2022-12-28T11:45:36.437Z,99316.81
2022-12-28T11:48:43.537Z,99304.06
2022-12-28T11:51:36.769Z,99313.94
2022-12-28T11:54:39.678Z,99306.78
2022-12-28T11:57:08.666Z,99302.72
2022-12-28T11:59:36.980Z,99296.91
2022-12-28T12:02:29.215Z,99288.56
2022-12-28T12:04:56.125Z,99298.97
2022-12-28T12:07:31.628Z,99297.50
2022-12-28T12:10:28.482Z,99303.91
2022-12-28T12:12:55.742Z,99300.84
2022-12-28T12:15:33.023Z,99298.50
2022-12-28T12:18:05.232Z,99296.19
2022-12-28T12:27:33.633Z,99286.34
2022-12-28T12:30:06.612Z,99261.00
2022-12-28T12:33:12.502Z,99259.59
2022-12-28T12:36:23.702Z,99264.09
2022-12-28T12:39:18.379Z,99248.38
2022-12-28T12:42:17.653Z,99260.66
2022-12-28T12:45:24.721Z,99251.63
2022-12-28T12:48:41.626Z,99239.19
2022-12-28T12:51:40.012Z,99225.84
2022-12-28T12:54:44.312Z,99220.91
2022-12-28T12:57:29.364Z,99206.59
2022-12-28T13:00:15.781Z,99216.00
2022-12-28T13:02:51.819Z,99202.44
2022-12-28T13:05:26.725Z,99205.94
2022-12-28T13:07:58.064Z,99205.97
2022-12-28T13:10:44.451Z,99199.25
2022-12-28T13:13:32.735Z,99174.72
2022-12-28T13:16:08.013Z,99179.03
2022-12-28T13:18:44.458Z,99176.53
2022-12-28T13:21:20.593Z,99164.69
2022-12-28T13:23:48.982Z,99143.50
2022-12-28T13:26:16.812Z,99140.19
2022-12-28T13:29:08.131Z,99153.81
2022-12-28T13:31:39.190Z,99149.63
2022-12-28T13:34:23.519Z,99149.66
2022-12-28T13:37:00.060Z,99143.72
2022-12-28T13:39:40.037Z,99124.22
2022-12-28T13:42:28.094Z,99136.94
2022-12-28T13:45:01.784Z,99136.03
2022-12-28T13:47:47.610Z,99136.00
2022-12-28T13:50:17.214Z,99139.31
2022-12-28T13:52:59.111Z,99131.63
2022-12-28T13:55:41.637Z,99121.44
2022-12-28T13:58:14.964Z,99114.56
2022-12-28T14:00:46.974Z,99111.16
2022-12-28T14:03:16.054Z,99109.44
2022-12-28T14:05:48.995Z,99106.06
2022-12-28T14:08:17.886Z,99098.44
2022-12-28T14:10:47.822Z,99096.75
2022-12-28T14:13:17.210Z,99097.53
2022-12-28T14:15:44.459Z,99105.22
2022-12-28T14:18:16.543Z,99110.22
2022-12-28T14:20:53.070Z,99100.94
2022-12-28T14:23:32.162Z,99104.31
2022-12-28T14:26:03.760Z,99100.97
2022-12-28T14:28:44.199Z,99078.97
2022-12-28T14:31:14.223Z,99073.16
2022-12-28T14:33:57.835Z,99062.16
2022-12-28T14:36:31.299Z,99061.34
2022-12-28T14:39:04.647Z,99071.56
2022-12-28T14:41:40.405Z,99052.97
2022-12-28T14:44:19.694Z,99052.19
2022-12-28T14:46:47.117Z,99045.47
2022-12-28T14:49:29.163Z,99031.13
2022-12-28T14:52:17.699Z,99035.44
2022-12-28T14:54:46.458Z,99027.81
2022-12-28T14:57:44.527Z,99016.03
2022-12-28T15:00:20.083Z,99019.44
2022-12-28T15:02:48.177Z,99022.84
2022-12-28T15:05:33.337Z,99021.13
2022-12-28T15:08:00.564Z,99026.19
2022-12-28T15:10:27.330Z,99026.16
2022-12-28T15:12:54.139Z,99015.94
2022-12-28T15:15:21.965Z,99004.13
2022-12-28T15:17:48.920Z,99005.03
2022-12-28T15:20:17.541Z,98996.63
2022-12-28T15:22:44.529Z,98994.91
2022-12-28T15:25:11.367Z,98993.25
2022-12-28T15:27:39.267Z,98988.19
2022-12-28T15:30:09.038Z,98990.72
2022-12-28T15:32:37.825Z,98985.66
2022-12-28T15:35:05.212Z,98981.47
2022-12-28T15:37:32.082Z,98972.16
2022-12-28T15:39:58.804Z,98965.50
2022-12-28T15:42:25.665Z,98963.00
2022-12-28T15:44:53.789Z,98964.72
2022-12-28T15:47:21.010Z,98959.69
2022-12-28T15:49:47.760Z,98957.09
2022-12-28T15:52:14.579Z,98943.63
2022-12-28T15:54:46.797Z,98938.63
2022-12-28T15:57:15.528Z,98936.16
2022-12-28T15:59:42.261Z,98931.22
2022-12-28T16:02:11.736Z,98935.56
2022-12-28T16:04:38.778Z,98927.16
2022-12-28T16:07:05.860Z,98935.72
2022-12-28T16:09:32.753Z,98926.38
2022-12-28T16:11:59.496Z,98935.78
2022-12-28T16:14:26.260Z,98922.25
2022-12-28T16:16:53.194Z,98924.78
2022-12-28T16:19:20.495Z,98929.03
2022-12-28T16:21:50.943Z,98906.19
2022-12-28T16:24:19.464Z,98914.66
2022-12-28T16:26:46.773Z,98902.84
2022-12-28T16:29:13.534Z,98902.84
2022-12-28T16:31:40.666Z,98901.19
2022-12-28T16:34:15.525Z,98899.50
2022-12-28T16:36:46.042Z,98900.44
2022-12-28T16:39:16.305Z,98892.88
2022-12-28T16:41:43.376Z,98889.47
2022-12-28T16:44:17.859Z,98889.41
2022-12-28T16:46:45.620Z,98886.16
2022-12-28T16:49:12.987Z,98884.47
2022-12-28T16:51:43.821Z,98874.31
2022-12-28T16:54:18.970Z,98881.09
2022-12-28T16:56:47.727Z,98870.19
2022-12-28T16:59:21.124Z,98867.63
2022-12-28T17:01:48.557Z,98866.81
2022-12-28T17:04:15.830Z,98854.19
2022-12-28T17:06:43.347Z,98855.09
2022-12-28T17:09:10.406Z,98855.19
2022-12-28T17:11:37.129Z,98845.16
2022-12-28T17:14:11.627Z,98847.81
2022-12-28T17:16:38.940Z,98826.72
2022-12-28T17:19:06.253Z,98832.78
2022-12-28T17:21:34.845Z,98819.44
2022-12-28T17:24:02.444Z,98833.00
2022-12-28T17:26:31.877Z,98816.16
2022-12-28T17:28:59.128Z,98820.34
2022-12-28T17:31:26.057Z,98812.78
2022-12-28T17:33:57.766Z,98792.47
2022-12-28T17:36:25.093Z,98809.41
2022-12-28T17:38:52.458Z,98797.56
2022-12-28T17:41:23.789Z,98802.59
2022-12-28T17:43:57.060Z,98784.88
2022-12-28T17:46:26.944Z,98787.44
2022-12-28T17:48:56.428Z,98779.88
2022-12-28T17:51:25.410Z,98766.06
2022-12-28T17:53:57.700Z,98774.41
2022-12-28T17:56:25.280Z,98764.41
2022-12-28T17:58:58.447Z,98749.34
2022-12-28T18:01:27.868Z,98739.25
2022-12-28T18:03:56.575Z,98734.31
2022-12-28T18:06:24.158Z,98729.31
2022-12-28T18:08:51.209Z,98724.31
2022-12-28T18:11:17.943Z,98714.22
2022-12-28T18:13:47.199Z,98713.47
2022-12-28T18:16:18.862Z,98715.28
2022-12-28T18:18:46.145Z,98708.66
2022-12-28T18:21:21.348Z,98693.47
2022-12-28T18:23:51.749Z,98696.09
2022-12-28T18:26:26.090Z,98700.34
2022-12-28T18:28:54.522Z,98692.81
2022-12-28T18:31:21.480Z,98681.03
2022-12-28T18:33:48.786Z,98693.72
2022-12-28T18:36:18.107Z,98674.31
2022-12-28T18:38:46.907Z,98667.59
2022-12-28T18:41:17.167Z,98659.78
2022-12-28T18:43:44.171Z,98663.94
2022-12-28T18:46:11.104Z,98675.00
2022-12-28T18:48:40.672Z,98658.16
2022-12-28T18:51:15.044Z,98659.06
2022-12-28T18:53:42.110Z,98643.06
2022-12-28T18:56:17.523Z,98657.50
2022-12-28T18:59:03.398Z,98626.34
2022-12-28T19:27:18.436Z,98618.56
2022-12-28T19:29:45.252Z,98608.41
2022-12-28T19:32:14.095Z,98612.50
2022-12-28T19:34:41.024Z,98612.41
2022-12-28T19:37:07.797Z,98620.75
2022-12-28T19:39:34.548Z,98613.06
2022-12-28T19:42:01.261Z,98607.09
2022-12-28T19:44:28.061Z,98620.25
2022-12-28T19:46:58.746Z,98605.53
2022-12-28T19:49:25.648Z,98591.94
2022-12-28T19:51:52.624Z,98583.47
2022-12-28T19:54:19.446Z,98581.75
2022-12-28T19:56:46.210Z,98575.75
2022-12-28T19:59:13.065Z,98576.53
2022-12-28T20:01:39.930Z,98594.19
2022-12-28T20:04:13.626Z,98586.53
2022-12-28T20:06:43.745Z,98597.44
2022-12-28T20:09:12.689Z,98577.13
2022-12-28T20:11:40.541Z,98591.38
2022-12-28T20:14:07.344Z,98592.13
2022-12-28T20:16:35.644Z,98584.38
2022-12-28T20:19:06.367Z,98589.34
2022-12-28T20:21:33.700Z,98594.28
2022-12-28T20:24:01.608Z,98591.59
2022-12-28T20:26:29.756Z,98593.19
2022-12-28T20:28:59.163Z,98600.72
2022-12-28T20:31:27.163Z,98573.53
2022-12-28T20:33:54.976Z,98575.97
2022-12-28T20:36:26.161Z,98575.88
2022-12-28T20:38:55.501Z,98572.34
2022-12-28T20:41:49.814Z,98585.81
2022-12-28T20:44:32.381Z,98580.66
2022-12-28T20:47:00.675Z,98591.63
2022-12-28T20:49:28.831Z,98567.78
2022-12-28T20:51:58.317Z,98577.03
2022-12-28T20:54:26.448Z,98572.69
2022-12-28T20:56:56.250Z,98571.78
2022-12-28T20:59:25.064Z,98568.22
2022-12-28T21:01:52.214Z,98566.41
2022-12-28T21:04:19.058Z,98553.66
2022-12-28T21:06:46.067Z,98562.91
2022-12-28T21:09:12.981Z,98571.28
2022-12-28T21:11:39.727Z,98566.94
2022-12-28T21:14:06.440Z,98564.34
2022-12-28T21:16:33.698Z,98560.03
2022-12-28T21:19:00.559Z,98556.69
2022-12-28T21:21:27.290Z,98560.88
2022-12-28T21:23:54.085Z,98556.56
2022-12-28T21:26:22.470Z,98557.38
2022-12-28T21:28:49.667Z,98563.28
2022-12-28T21:31:16.661Z,98556.50
2022-12-28T21:33:43.545Z,98560.69
2022-12-28T21:36:16.987Z,98553.91
2022-12-28T21:38:46.576Z,98553.06
2022-12-28T21:41:38.779Z,98555.59
2022-12-28T21:44:12.188Z,98553.06
2022-12-28T21:46:39.568Z,98555.56
2022-12-28T21:49:07.464Z,98545.28
2022-12-28T21:51:39.127Z,98541.88
2022-12-28T21:54:16.736Z,98535.13
2022-12-28T21:56:46.816Z,98542.69
2022-12-28T21:59:14.200Z,98539.34
2022-12-28T22:02:01.075Z,98535.06
2022-12-28T22:04:48.043Z,98541.94
2022-12-28T22:07:18.826Z,98527.53
2022-12-28T22:10:04.983Z,98525.88
2022-12-28T22:12:35.445Z,98536.09
2022-12-28T22:15:30.808Z,98533.63
2022-12-28T22:18:44.476Z,98526.09
2022-12-28T22:21:05.556Z,98514.31
2022-12-28T22:23:34.729Z,98521.13
2022-12-28T22:26:01.885Z,98520.16
2022-12-28T22:28:28.678Z,98525.25
2022-12-28T22:30:55.381Z,98522.63
2022-12-28T22:33:22.121Z,98515.84
2022-12-28T22:35:48.888Z,98522.59
2022-12-28T22:38:15.644Z,98519.13
2022-12-28T22:40:42.406Z,98519.91
2022-12-28T22:43:09.131Z,98510.56
2022-12-28T22:45:35.967Z,98517.22
2022-12-28T22:48:02.711Z,98510.38
2022-12-28T22:50:29.477Z,98517.91
2022-12-28T22:52:58.113Z,98530.50
2022-12-28T22:55:24.923Z,98526.22
2022-12-28T22:57:51.627Z,98508.34
2022-12-28T23:00:20.938Z,98497.22
2022-12-28T23:02:47.846Z,98501.34
2022-12-28T23:05:14.748Z,98496.97
2022-12-28T23:07:41.591Z,98496.94
2022-12-28T23:16:50.487Z,98518.25
2022-12-28T23:19:41.324Z,98499.63
2022-12-28T23:22:35.278Z,98494.53
2022-12-28T23:25:21.272Z,98488.56
2022-12-28T23:27:48.523Z,98488.50
2022-12-28T23:30:21.606Z,98478.22
2022-12-28T23:32:51.549Z,98489.25
2022-12-28T23:35:20.512Z,98488.44
2022-12-28T23:37:48.453Z,98482.59
2022-12-28T23:40:18.431Z,98477.53
2022-12-28T23:42:45.495Z,98459.78
2022-12-28T23:45:16.188Z,98464.13
2022-12-28T23:47:44.885Z,98463.38
2022-12-28T23:50:14.087Z,98466.91
2022-12-28T23:52:41.191Z,98464.50
2022-12-28T23:55:09.856Z,98454.38
2022-12-28T23:57:37.856Z,98451.81
